Time;durP1;ratioP1;P1;durP2;ratioP2;P2;SDS_P1;SDS_P2;PMS_P1;PMS_P2;Temp;Humidity;BMP_temperature;BMP_pressure;BME280_temperature;BME280_humidity;BME280_pressure;Samples;Min_cycle;Max_cycle;Signal;HPM_P1;HPM_P2
2022/12/31 00:02:24;;;;;;;20.67;10.40;;;12.60;32.80;;;;;;5074696;28;20047;-80
2022/12/31 00:04:50;;;;;;;10.07;5.43;;;12.60;31.00;;;;;;5092712;28;20031;-78
2022/12/31 00:07:17;;;;;;;28.77;19.00;;;12.70;29.60;;;;;;5090244;28;20050;-81
2022/12/31 00:09:43;;;;;;;35.10;20.30;;;12.80;27.90;;;;;;5090294;28;20043;-81
2022/12/31 00:12:09;;;;;;;16.63;8.77;;;12.70;28.60;;;;;;5091499;28;20047;-78
2022/12/31 00:14:35;;;;;;;109.90;65.38;;;12.70;30.10;;;;;;5091374;28;20032;-82
2022/12/31 00:17:01;;;;;;;34.47;20.70;;;12.80;34.20;;;;;;5091367;28;20044;-78
2022/12/31 00:19:27;;;;;;;12.93;8.35;;;12.80;40.30;;;;;;5090645;28;20496;-79
2022/12/31 00:21:53;;;;;;;31.90;21.20;;;12.80;44.10;;;;;;5074248;28;20047;-78
2022/12/31 00:24:20;;;;;;;18.52;11.82;;;12.70;54.70;;;;;;5099815;28;20040;-81
2022/12/31 00:26:46;;;;;;;31.95;19.33;;;12.70;58.80;;;;;;5092449;28;20039;-81
2022/12/31 00:29:12;;;;;;;43.90;28.58;;;12.70;67.00;;;;;;5090057;28;20032;-80
2022/12/31 00:31:38;;;;;;;17.25;11.60;;;12.60;73.60;;;;;;5089867;28;20044;-79
2022/12/31 00:34:05;;;;;;;24.02;16.52;;;12.60;82.30;;;;;;5092273;28;20039;-79
2022/12/31 00:36:34;;;;;;;14.23;9.02;;;12.60;91.60;;;;;;5090657;28;20043;-79
2022/12/31 00:39:02;;;;;;;11.65;7.15;;;12.60;93.30;;;;;;5091229;28;20031;-79
2022/12/31 00:41:29;;;;;;;15.18;9.73;;;12.60;97.90;;;;;;5091717;28;20114;-79
2022/12/31 00:43:55;;;;;;;21.00;14.18;;;12.50;98.80;;;;;;5090953;28;20040;-79
2022/12/31 00:46:22;;;;;;;4.88;3.45;;;12.50;99.90;;;;;;5089487;28;20032;-80
2022/12/31 00:48:48;;;;;;;1.98;1.40;;;12.50;99.90;;;;;;5089238;28;20040;-79
2022/12/31 00:51:17;;;;;;;20.40;14.25;;;12.50;99.90;;;;;;5090250;28;20389;-79
2022/12/31 00:53:43;;;;;;;4.85;3.47;;;12.50;99.90;;;;;;5090523;28;20043;-78
2022/12/31 00:56:22;;;;;;;42.28;29.23;;;12.50;99.90;;;;;;5090869;28;20059;-78
2022/12/31 00:58:48;;;;;;;10.18;6.53;;;12.40;99.90;;;;;;5072233;28;20567;-79
2022/12/31 01:01:23;;;;;;;10.68;8.45;;;12.40;99.90;;;;;;5083045;28;20037;-83
2022/12/31 01:03:51;;;;;;;4.93;3.28;;;12.40;99.90;;;;;;5073677;28;20055;-78
2022/12/31 01:06:18;;;;;;;8.07;5.13;;;12.40;99.90;;;;;;5090268;28;20027;-80
2022/12/31 01:08:46;;;;;;;11.45;7.45;;;12.40;99.90;;;;;;5071772;28;20044;-79
2022/12/31 01:11:18;;;;;;;14.70;10.55;;;12.50;99.90;;;;;;5090896;28;20527;-79
2022/12/31 01:13:45;;;;;;;5.60;3.15;;;12.50;99.90;;;;;;5090790;28;20043;-80
2022/12/31 01:16:13;;;;;;;5.90;2.95;;;12.50;99.90;;;;;;5090615;28;20097;-80
2022/12/31 01:18:39;;;;;;;3.35;1.65;;;12.60;99.90;;;;;;5088606;28;20054;-79
2022/12/31 01:21:08;;;;;;;6.60;4.68;;;12.60;97.70;;;;;;5090392;28;20044;-79
2022/12/31 01:23:35;;;;;;;3.13;1.58;;;12.60;96.10;;;;;;5073069;28;20350;-79
2022/12/31 01:26:04;;;;;;;3.78;2.05;;;12.60;93.80;;;;;;5073779;28;20477;-78
2022/12/31 01:28:31;;;;;;;1.35;0.95;;;12.70;92.00;;;;;;5088090;28;20040;-77
2022/12/31 01:30:57;;;;;;;2.25;1.35;;;12.70;90.20;;;;;;5090610;28;20392;-78
2022/12/31 01:33:23;;;;;;;3.08;1.23;;;12.70;86.40;;;;;;5091127;28;20036;-79
2022/12/31 01:35:51;;;;;;;1.25;0.88;;;12.70;81.80;;;;;;5073916;28;20063;-80
2022/12/31 01:38:17;;;;;;;1.73;1.00;;;12.80;78.80;;;;;;5087845;28;20059;-79
2022/12/31 01:40:43;;;;;;;0.73;0.73;;;12.70;75.70;;;;;;5090747;28;20036;-79
2022/12/31 01:43:16;;;;;;;1.58;0.90;;;12.70;75.10;;;;;;5090444;28;20048;-80
2022/12/31 01:45:46;;;;;;;2.67;0.70;;;12.70;74.60;;;;;;5092010;28;20033;-80
2022/12/31 01:48:16;;;;;;;2.17;0.90;;;12.80;68.40;;;;;;5071583;28;20469;-80
2022/12/31 01:50:44;;;;;;;1.83;0.90;;;12.80;62.40;;;;;;5090410;28;20495;-80
2022/12/31 01:53:11;;;;;;;2.22;1.15;;;12.80;59.00;;;;;;5071105;28;20041;-80
2022/12/31 01:55:51;;;;;;;1.83;0.98;;;12.80;58.50;;;;;;5073287;28;20047;-80
2022/12/31 01:58:21;;;;;;;4.60;3.35;;;12.80;56.70;;;;;;5092253;28;20039;-81
2022/12/31 02:00:48;;;;;;;7.33;5.03;;;12.80;51.80;;;;;;5094299;28;20028;-80
2022/12/31 02:03:14;;;;;;;3.20;1.00;;;12.80;46.20;;;;;;5095102;28;20297;-81
2022/12/31 02:06:06;;;;;;;5.22;3.30;;;12.80;41.20;;;;;;5076605;28;20408;-80
2022/12/31 02:08:34;;;;;;;2.00;1.23;;;12.80;39.50;;;;;;5091234;28;20370;-80
2022/12/31 02:11:00;;;;;;;2.50;1.17;;;12.80;34.60;;;;;;5094950;28;20515;-78
2022/12/31 02:13:26;;;;;;;2.72;1.15;;;12.90;23.90;;;;;;5076374;28;20439;-78
2022/12/31 02:15:53;;;;;;;1.75;0.85;;;13.00;14.40;;;;;;5092332;28;20372;-78
2022/12/31 02:18:34;;;;;;;2.08;1.10;;;13.30;1.10;;;;;;5054431;28;20048;-80
2022/12/31 02:21:12;;;;;;;0.95;0.60;;;13.40;1.00;;;;;;5056206;28;20040;-80
2022/12/31 02:23:59;;;;;;;2.55;1.00;;;13.50;1.00;;;;;;5073691;28;20047;-79
2022/12/31 02:26:55;;;;;;;1.08;0.60;;;13.60;1.00;;;;;;5056019;28;20051;-78
2022/12/31 02:30:00;;;;;;;1.42;0.55;;;13.70;1.00;;;;;;5054540;28;20493;-80
2022/12/31 02:32:29;;;;;;;2.05;0.50;;;13.70;1.00;;;;;;5056197;28;20465;-79
2022/12/31 02:35:01;;;;;;;1.73;0.60;;;13.70;1.00;;;;;;5057360;28;20056;-79
2022/12/31 02:37:31;;;;;;;2.20;0.60;;;13.60;1.00;;;;;;5054135;28;20063;-80
2022/12/31 02:39:59;;;;;;;1.52;0.63;;;13.50;1.00;;;;;;5056313;28;20056;-78
2022/12/31 02:42:25;;;;;;;2.17;0.60;;;13.70;1.00;;;;;;5055580;28;20056;-76
2022/12/31 02:44:51;;;;;;;2.80;1.77;;;13.80;1.00;;;;;;5074251;28;20040;-77
2022/12/31 02:47:42;;;;;;;1.85;0.70;;;13.80;1.00;;;;;;5054583;28;20041;-78
2022/12/31 02:50:13;;;;;;;2.45;0.60;;;13.80;1.00;;;;;;5074219;28;20052;-77
2022/12/31 02:52:39;;;;;;;3.25;1.02;;;13.80;1.00;;;;;;5072929;28;20040;-79
2022/12/31 02:55:27;;;;;;;3.70;0.68;;;14.00;1.00;;;;;;5074241;28;20043;-79
2022/12/31 02:58:11;;;;;;;0.68;0.40;;;14.10;1.00;;;;;;5037883;28;20041;-78
2022/12/31 03:03:38;;;;;;;1.23;0.40;;;14.20;1.00;;;;;;5073409;28;20302;-80
2022/12/31 03:06:07;;;;;;;0.80;0.40;;;14.10;1.00;;;;;;5039432;28;20073;-81
2022/12/31 03:09:11;;;;;;;0.98;0.50;;;14.10;1.00;;;;;;5071255;28;20033;-82
2022/12/31 03:14:07;;;;;;;1.88;0.68;;;14.00;1.00;;;;;;5050475;28;20041;-81
2022/12/31 03:16:33;;;;;;;1.40;0.60;;;14.00;1.00;;;;;;5051028;28;20047;-80
2022/12/31 03:22:30;;;;;;;1.95;0.60;;;14.10;1.00;;;;;;5094104;28;20044;-81
2022/12/31 03:27:15;;;;;;;1.35;0.55;;;14.00;1.00;;;;;;5090941;28;20051;-81
2022/12/31 03:29:41;;;;;;;1.52;0.60;;;14.10;1.00;;;;;;5079630;28;20036;-80
2022/12/31 03:32:07;;;;;;;1.10;0.57;;;14.10;1.00;;;;;;5099290;28;20366;-80
2022/12/31 03:34:33;;;;;;;3.47;0.93;;;14.10;1.00;;;;;;5096474;28;20047;-82
2022/12/31 03:36:59;;;;;;;1.38;0.60;;;14.10;1.00;;;;;;5095791;28;20028;-81
2022/12/31 03:39:26;;;;;;;1.52;0.60;;;14.10;1.00;;;;;;5093236;28;20052;-81
2022/12/31 03:41:52;;;;;;;3.58;0.60;;;14.10;1.00;;;;;;5094256;28;20039;-81
2022/12/31 03:44:18;;;;;;;3.03;0.70;;;14.20;1.00;;;;;;5092291;28;20401;-79
2022/12/31 03:46:44;;;;;;;2.53;0.55;;;14.30;1.00;;;;;;5075329;28;20047;-80
2022/12/31 03:49:10;;;;;;;4.03;0.80;;;14.30;1.00;;;;;;5087859;28;20036;-80
2022/12/31 03:51:36;;;;;;;0.98;0.50;;;14.30;1.00;;;;;;5086080;28;20099;-80
2022/12/31 03:54:02;;;;;;;1.55;0.60;;;14.30;1.00;;;;;;5092091;28;20040;-80
2022/12/31 03:56:29;;;;;;;2.33;0.50;;;14.30;1.00;;;;;;5074384;28;20465;-80
2022/12/31 03:58:55;;;;;;;1.20;0.47;;;14.20;1.00;;;;;;5091671;28;20035;-79
2022/12/31 04:01:23;;;;;;;4.20;0.70;;;14.20;1.00;;;;;;5090993;28;20032;-80
2022/12/31 04:03:50;;;;;;;2.38;0.90;;;14.40;1.00;;;;;;5074840;28;20052;-79
2022/12/31 04:06:16;;;;;;;3.13;0.82;;;14.30;1.00;;;;;;5091593;28;20032;-80
2022/12/31 04:08:42;;;;;;;1.20;0.40;;;14.40;1.00;;;;;;5090725;28;20032;-79
2022/12/31 04:11:08;;;;;;;1.73;0.60;;;14.40;1.00;;;;;;5090095;28;20032;-79
2022/12/31 04:13:34;;;;;;;2.70;0.50;;;14.50;1.00;;;;;;5090460;28;20040;-78
2022/12/31 04:16:00;;;;;;;1.50;0.73;;;14.50;1.00;;;;;;5082256;28;20041;-78
2022/12/31 04:18:26;;;;;;;1.48;0.50;;;14.60;1.00;;;;;;5071721;28;20033;-77
2022/12/31 04:20:53;;;;;;;2.45;0.60;;;14.60;1.00;;;;;;5070033;28;20032;-81
2022/12/31 04:23:19;;;;;;;1.98;0.68;;;14.60;1.00;;;;;;5042396;28;20399;-78
2022/12/31 04:25:45;;;;;;;0.77;0.30;;;14.60;1.00;;;;;;5046920;28;20032;-76
2022/12/31 04:28:11;;;;;;;1.92;0.55;;;14.80;1.00;;;;;;5054676;28;20040;-77
2022/12/31 04:30:38;;;;;;;2.95;0.40;;;14.70;1.00;;;;;;5071405;28;20381;-78
2022/12/31 04:33:04;;;;;;;1.15;0.45;;;14.90;1.00;;;;;;5053674;28;20043;-80
2022/12/31 04:35:30;;;;;;;1.42;0.40;;;14.90;1.00;;;;;;5051723;28;20048;-81
2022/12/31 04:37:57;;;;;;;0.55;0.30;;;14.80;1.00;;;;;;5056152;28;20047;-79
2022/12/31 04:40:23;;;;;;;1.88;0.52;;;14.90;1.00;;;;;;5071692;28;20056;-79
2022/12/31 04:42:49;;;;;;;1.70;0.93;;;14.90;1.00;;;;;;5054298;28;20032;-79
2022/12/31 04:45:15;;;;;;;4.75;0.50;;;14.90;1.00;;;;;;5052360;28;20047;-79
2022/12/31 04:47:42;;;;;;;3.50;0.40;;;14.90;1.00;;;;;;5053041;28;20470;-79
2022/12/31 04:50:08;;;;;;;1.13;0.57;;;14.90;1.00;;;;;;5072176;28;20035;-79
2022/12/31 04:52:34;;;;;;;2.17;0.43;;;14.90;1.00;;;;;;5053233;28;20044;-78
2022/12/31 04:55:00;;;;;;;1.77;0.40;;;15.00;1.00;;;;;;5070600;28;20481;-79
2022/12/31 04:57:26;;;;;;;1.65;0.30;;;14.90;1.00;;;;;;5053518;28;20033;-78
2022/12/31 04:59:52;;;;;;;1.95;0.52;;;15.00;1.00;;;;;;5070960;28;20063;-78
2022/12/31 05:02:19;;;;;;;1.00;0.43;;;14.90;1.00;;;;;;5060884;28;20073;-78
2022/12/31 05:04:45;;;;;;;2.35;0.50;;;15.00;1.00;;;;;;5070417;28;20489;-79
2022/12/31 05:07:11;;;;;;;1.05;0.40;;;15.10;1.00;;;;;;5072240;28;20033;-79
2022/12/31 05:09:37;;;;;;;1.67;0.43;;;15.10;1.00;;;;;;5052859;28;20048;-81
2022/12/31 05:12:03;;;;;;;4.32;0.55;;;15.20;1.00;;;;;;5053590;28;20398;-79
2022/12/31 05:14:30;;;;;;;1.00;0.40;;;15.10;1.00;;;;;;5052412;28;20036;-78
2022/12/31 05:16:57;;;;;;;3.35;0.50;;;15.10;1.00;;;;;;5071360;28;20059;-79
2022/12/31 05:19:23;;;;;;;0.40;0.20;;;15.10;1.00;;;;;;5071264;28;20359;-80
2022/12/31 05:24:34;;;;;;;3.28;0.30;;;15.20;1.00;;;;;;5052050;28;20049;-81
2022/12/31 05:27:00;;;;;;;0.95;0.30;;;15.40;1.00;;;;;;5071673;28;20055;-81
2022/12/31 05:29:26;;;;;;;1.10;0.30;;;15.40;1.00;;;;;;5036562;28;20045;-79
2022/12/31 05:31:52;;;;;;;0.73;0.35;;;15.50;1.00;;;;;;5055447;28;20024;-75
2022/12/31 05:34:19;;;;;;;1.48;0.50;;;15.50;1.00;;;;;;5074146;28;20040;-77
2022/12/31 05:36:45;;;;;;;1.52;0.40;;;15.50;1.00;;;;;;5056934;28;20039;-76
2022/12/31 05:39:11;;;;;;;1.08;0.30;;;15.50;1.00;;;;;;5057324;28;20040;-78
2022/12/31 05:41:37;;;;;;;0.68;0.28;;;15.50;1.00;;;;;;5040784;28;20032;-79
2022/12/31 05:44:03;;;;;;;1.63;0.52;;;15.70;1.00;;;;;;5073441;28;20047;-77
2022/12/31 05:46:29;;;;;;;0.80;0.43;;;15.60;1.00;;;;;;5074583;28;20028;-77
2022/12/31 05:48:56;;;;;;;0.73;0.40;;;15.60;1.00;;;;;;5057371;28;20025;-75
2022/12/31 05:51:22;;;;;;;1.15;0.50;;;15.60;1.00;;;;;;5039769;28;20040;-73
2022/12/31 05:53:48;;;;;;;2.38;0.60;;;15.60;1.00;;;;;;5073144;28;20041;-73
2022/12/31 05:56:15;;;;;;;1.45;0.50;;;15.50;1.00;;;;;;5075190;28;20032;-75
2022/12/31 05:58:41;;;;;;;2.75;0.30;;;15.60;1.00;;;;;;5073454;28;20037;-75
2022/12/31 06:01:07;;;;;;;1.45;0.50;;;15.50;1.00;;;;;;5068601;28;20041;-74
2022/12/31 06:03:33;;;;;;;1.00;0.40;;;15.50;1.00;;;;;;5072668;28;20397;-75
2022/12/31 06:06:00;;;;;;;0.75;0.28;;;15.60;1.00;;;;;;5073868;28;20029;-74
2022/12/31 06:08:26;;;;;;;2.63;0.60;;;15.60;1.00;;;;;;5068135;28;20020;-75
2022/12/31 06:10:52;;;;;;;3.63;0.57;;;15.60;1.00;;;;;;5057755;28;20032;-75
2022/12/31 06:13:18;;;;;;;1.48;0.47;;;15.60;1.00;;;;;;5073087;28;20028;-75
2022/12/31 06:15:44;;;;;;;0.93;0.40;;;15.50;1.00;;;;;;5073926;28;20481;-75
2022/12/31 06:18:11;;;;;;;0.65;0.30;;;15.50;1.00;;;;;;5040595;28;20362;-73
2022/12/31 06:20:37;;;;;;;0.63;0.40;;;15.50;1.00;;;;;;5073789;28;20040;-73
2022/12/31 06:23:04;;;;;;;1.60;0.40;;;15.40;1.00;;;;;;5055029;28;20095;-75
2022/12/31 06:25:31;;;;;;;2.03;0.30;;;15.50;1.00;;;;;;5074125;28;20031;-79
2022/12/31 06:27:57;;;;;;;4.25;0.50;;;15.60;1.00;;;;;;5075040;28;20028;-86
2022/12/31 06:30:23;;;;;;;1.63;0.40;;;15.50;1.00;;;;;;5061695;28;20047;-84
2022/12/31 06:32:49;;;;;;;0.70;0.30;;;15.50;1.00;;;;;;5038580;28;20044;-82
2022/12/31 06:35:17;;;;;;;4.10;0.60;;;15.50;1.00;;;;;;5039828;28;20401;-82
2022/12/31 06:37:43;;;;;;;1.08;0.45;;;15.50;1.00;;;;;;5053723;28;20044;-82
2022/12/31 06:40:10;;;;;;;1.48;0.40;;;15.40;1.00;;;;;;5069429;28;20056;-79
2022/12/31 06:42:36;;;;;;;1.73;0.63;;;15.50;1.00;;;;;;5069946;28;20389;-82
2022/12/31 06:45:02;;;;;;;0.60;0.30;;;15.40;1.00;;;;;;5050323;28;20047;-80
2022/12/31 06:47:28;;;;;;;2.67;0.63;;;15.30;1.00;;;;;;5043025;28;20409;-80
2022/12/31 06:49:55;;;;;;;1.63;0.43;;;15.20;1.00;;;;;;5067916;28;20032;-82
2022/12/31 06:52:21;;;;;;;1.27;0.43;;;15.10;1.00;;;;;;5067955;28;20036;-78
2022/12/31 06:54:48;;;;;;;2.00;0.40;;;15.20;1.00;;;;;;5067176;28;20033;-78
2022/12/31 06:57:14;;;;;;;1.83;0.63;;;15.10;1.00;;;;;;5055231;28;20394;-77
2022/12/31 06:59:41;;;;;;;1.98;0.30;;;15.10;1.00;;;;;;5067976;28;20394;-79
2022/12/31 07:02:22;;;;;;;9.35;5.07;;;15.10;1.00;;;;;;5066241;28;20358;-77
2022/12/31 07:04:57;;;;;;;110.45;65.28;;;15.10;1.00;;;;;;5047480;28;20470;-78
2022/12/31 07:07:29;;;;;;;209.25;114.35;;;15.10;1.00;;;;;;5038788;28;20052;-79
2022/12/31 07:10:25;;;;;;;95.65;50.90;;;15.00;1.00;;;;;;5071778;28;20044;-79
2022/12/31 07:13:12;;;;;;;12.75;6.18;;;14.90;1.00;;;;;;4970477;28;20050;-79
2022/12/31 07:16:00;;;;;;;7.93;3.78;;;14.80;1.00;;;;;;5039138;28;20049;-79
2022/12/31 07:18:46;;;;;;;10.30;4.38;;;14.80;1.00;;;;;;5092492;28;20048;-78
2022/12/31 07:21:15;;;;;;;5.32;2.33;;;14.80;1.00;;;;;;5072512;28;20045;-79
2022/12/31 07:23:42;;;;;;;16.02;9.10;;;15.10;1.00;;;;;;5090091;28;20392;-81
2022/12/31 07:26:27;;;;;;;56.72;34.38;;;15.10;1.00;;;;;;5091977;28;20040;-79
2022/12/31 07:29:07;;;;;;;27.73;16.10;;;15.10;1.00;;;;;;5093759;28;20032;-79
2022/12/31 07:31:54;;;;;;;34.50;22.40;;;14.90;1.00;;;;;;5092381;28;20483;-78
2022/12/31 07:34:44;;;;;;;27.38;17.77;;;14.70;1.00;;;;;;5084716;28;20047;-79
2022/12/31 07:37:32;;;;;;;51.08;32.08;;;14.60;1.00;;;;;;5093673;28;20035;-79
2022/12/31 07:40:33;;;;;;;27.45;16.00;;;14.60;1.00;;;;;;5093411;28;20040;-79
2022/12/31 07:43:02;;;;;;;61.05;35.22;;;14.60;1.00;;;;;;5074142;28;20040;-80
2022/12/31 07:45:28;;;;;;;51.83;31.67;;;14.50;1.00;;;;;;5091706;28;20055;-80
2022/12/31 07:47:55;;;;;;;20.48;12.02;;;14.50;1.00;;;;;;5093207;28;20031;-78
2022/12/31 07:50:21;;;;;;;110.50;71.18;;;14.50;1.00;;;;;;5093202;28;20052;-76
2022/12/31 07:52:48;;;;;;;10.25;4.90;;;14.40;1.00;;;;;;5093150;28;20024;-75
2022/12/31 07:55:14;;;;;;;56.28;33.03;;;14.40;1.00;;;;;;5096772;28;20032;-76
2022/12/31 07:57:56;;;;;;;123.47;73.72;;;14.40;1.00;;;;;;5100224;28;20032;-79
2022/12/31 08:00:23;;;;;;;;;;;14.30;1.00;;;;;;5098548;28;20031;-79
2022/12/31 08:03:05;;;;;;;68.90;42.95;;;14.30;1.00;;;;;;5091111;28;19915;-79
2022/12/31 08:06:09;;;;;;;54.92;30.58;;;14.30;1.00;;;;;;5092360;28;20036;-79
2022/12/31 08:08:49;;;;;;;9.38;5.05;;;14.30;1.00;;;;;;5092550;28;20040;-78
2022/12/31 08:11:31;;;;;;;13.93;6.78;;;14.40;1.00;;;;;;5091907;28;20032;-78
2022/12/31 08:14:01;;;;;;;24.98;14.00;;;14.40;1.00;;;;;;5089730;28;20044;-78
2022/12/31 08:16:28;;;;;;;28.33;16.23;;;14.40;1.00;;;;;;5091739;28;20071;-78
2022/12/31 08:18:56;;;;;;;31.35;19.40;;;14.40;1.00;;;;;;5084507;28;20047;-80
2022/12/31 08:21:38;;;;;;;41.67;25.38;;;14.40;1.00;;;;;;5092323;28;20036;-79
2022/12/31 08:24:18;;;;;;;45.22;26.85;;;14.50;1.00;;;;;;5093609;28;20043;-82
2022/12/31 08:26:59;;;;;;;18.02;10.07;;;14.50;1.00;;;;;;5068378;28;20057;-81
2022/12/31 08:29:34;;;;;;;8.55;3.97;;;14.50;1.00;;;;;;5084077;28;20033;-80
2022/12/31 08:32:19;;;;;;;33.25;19.67;;;14.60;1.00;;;;;;5092218;28;20036;-81
2022/12/31 08:35:02;;;;;;;85.40;47.60;;;14.60;1.00;;;;;;5086187;28;20055;-81
2022/12/31 08:37:37;;;;;;;27.00;15.88;;;14.70;1.00;;;;;;5078651;28;20374;-81
2022/12/31 08:40:24;;;;;;;13.85;7.80;;;14.70;1.00;;;;;;5090681;28;20039;-79
2022/12/31 08:42:56;;;;;;;24.67;13.98;;;14.80;1.00;;;;;;5090412;28;20039;-79
2022/12/31 08:45:34;;;;;;;27.75;17.13;;;14.80;1.00;;;;;;5092170;28;20063;-78
2022/12/31 08:48:22;;;;;;;19.65;12.63;;;14.80;1.00;;;;;;5090707;28;20043;-78
2022/12/31 08:50:48;;;;;;;4.50;1.30;;;14.80;1.00;;;;;;5090391;28;20500;-79
2022/12/31 08:53:15;;;;;;;7.97;4.60;;;14.90;1.00;;;;;;5090630;28;20052;-79
2022/12/31 08:55:44;;;;;;;5.88;3.95;;;14.90;1.00;;;;;;5091882;28;20389;-78
2022/12/31 08:58:35;;;;;;;2.10;0.90;;;15.00;1.00;;;;;;5090558;28;20032;-79
2022/12/31 09:01:04;;;;;;;5.68;4.03;;;15.00;1.00;;;;;;5091103;28;20024;-80
2022/12/31 09:04:22;;;;;;;5.50;2.45;;;15.00;1.00;;;;;;5091996;28;20032;-80
2022/12/31 09:06:54;;;;;;;18.15;11.93;;;15.10;1.00;;;;;;5011412;28;20060;-80
2022/12/31 09:09:26;;;;;;;30.88;20.10;;;15.00;1.00;;;;;;5018035;28;20041;-80
2022/12/31 09:12:13;;;;;;;9.00;5.68;;;15.00;1.00;;;;;;5062303;28;20484;-79
2022/12/31 09:15:16;;;;;;;3.38;2.92;;;15.10;1.00;;;;;;5095814;28;20035;-79
2022/12/31 09:17:45;;;;;;;2.70;0.90;;;15.10;1.00;;;;;;5062007;28;20060;-79
2022/12/31 09:20:32;;;;;;;3.05;1.73;;;15.10;1.00;;;;;;5094998;28;20043;-79
2022/12/31 09:23:00;;;;;;;6.63;4.50;;;15.10;1.00;;;;;;5095665;28;20028;-79
2022/12/31 09:25:27;;;;;;;2.13;0.93;;;15.10;1.00;;;;;;5094599;28;20044;-79
2022/12/31 09:28:14;;;;;;;1.27;0.75;;;15.20;1.00;;;;;;5092404;28;20484;-79
2022/12/31 09:31:15;;;;;;;1.65;0.68;;;15.20;1.00;;;;;;5094040;28;20043;-79
2022/12/31 09:33:51;;;;;;;4.63;1.08;;;15.20;1.00;;;;;;5094287;28;20493;-79
2022/12/31 09:36:47;;;;;;;1.48;0.40;;;15.20;1.00;;;;;;5095329;28;20040;-79
2022/12/31 09:39:29;;;;;;;2.05;1.00;;;15.30;1.00;;;;;;5073699;28;20048;-79
2022/12/31 09:42:24;;;;;;;1.90;1.00;;;15.40;1.00;;;;;;5090088;28;20040;-80
2022/12/31 09:45:47;;;;;;;2.78;0.80;;;15.50;1.00;;;;;;5093738;28;20047;-80
2022/12/31 09:48:44;;;;;;;2.40;1.10;;;15.60;1.00;;;;;;5014881;28;20037;-79
2022/12/31 09:51:22;;;;;;;3.55;0.90;;;15.50;1.00;;;;;;5013119;28;20175;-79
2022/12/31 09:53:53;;;;;;;1.65;0.77;;;15.60;1.00;;;;;;5032347;28;20510;-79
2022/12/31 09:56:27;;;;;;;1.73;0.50;;;15.50;1.00;;;;;;5015596;28;20625;-79
2022/12/31 09:59:15;;;;;;;1.65;0.88;;;15.60;1.00;;;;;;5032577;28;20050;-78
2022/12/31 10:01:59;;;;;;;1.90;0.77;;;15.50;1.00;;;;;;5027211;28;20518;-78
2022/12/31 10:04:41;;;;;;;1.58;0.88;;;15.60;1.00;;;;;;5033134;28;20041;-80
2022/12/31 10:07:10;;;;;;;2.17;0.63;;;15.60;1.00;;;;;;5030791;28;20037;-80
2022/12/31 10:09:53;;;;;;;2.17;0.60;;;15.60;1.00;;;;;;5032746;28;20442;-79
2022/12/31 10:12:38;;;;;;;1.88;0.50;;;15.60;1.00;;;;;;5032957;28;20041;-80
2022/12/31 10:15:28;;;;;;;1.05;0.50;;;15.70;1.00;;;;;;5032711;28;20029;-80
2022/12/31 10:18:16;;;;;;;1.30;0.60;;;15.60;1.00;;;;;;5031848;28;20612;-78
2022/12/31 10:21:01;;;;;;;1.70;0.70;;;15.70;1.00;;;;;;5092427;28;20381;-78
2022/12/31 10:23:59;;;;;;;3.65;1.10;;;15.90;1.00;;;;;;5076720;28;20066;-79
2022/12/31 10:26:49;;;;;;;1.88;0.98;;;16.00;1.00;;;;;;5087810;28;20058;-79
2022/12/31 10:29:26;;;;;;;1.58;0.80;;;16.20;1.00;;;;;;5094894;28;20032;-78
2022/12/31 10:31:55;;;;;;;3.60;0.68;;;16.30;1.00;;;;;;5092859;28;20028;-78
2022/12/31 10:34:30;;;;;;;3.05;0.73;;;16.40;1.00;;;;;;5094557;28;20039;-78
2022/12/31 10:37:06;;;;;;;1.83;0.50;;;16.50;1.00;;;;;;5091283;28;20039;-78
2022/12/31 10:39:41;;;;;;;1.67;0.68;;;16.60;1.00;;;;;;5094848;28;20039;-78
2022/12/31 10:42:34;;;;;;;2.38;0.77;;;16.60;1.00;;;;;;5088457;28;20040;-78
2022/12/31 10:45:33;;;;;;;1.80;0.82;;;16.60;1.00;;;;;;5051699;28;20063;-79
2022/12/31 10:48:40;;;;;;;2.65;0.70;;;16.70;1.00;;;;;;5092496;28;20028;-79
2022/12/31 10:51:09;;;;;;;1.58;0.40;;;16.80;1.00;;;;;;5092721;28;20055;-78
2022/12/31 10:54:17;;;;;;;1.55;0.40;;;16.80;1.00;;;;;;5094024;28;20465;-78
2022/12/31 10:57:17;;;;;;;3.28;0.60;;;16.90;1.00;;;;;;5095582;28;20048;-79
2022/12/31 11:00:19;;;;;;;2.15;0.70;;;17.00;1.00;;;;;;5089761;28;20032;-78
2022/12/31 11:03:06;;;;;;;1.98;0.60;;;17.00;99.90;;;;;;5088112;28;20036;-78
2022/12/31 11:06:06;;;;;;;1.38;0.50;;;17.10;99.90;;;;;;5093898;28;20032;-78
2022/12/31 11:08:53;;;;;;;3.08;0.60;;;17.20;99.90;;;;;;5091749;28;20387;-79
2022/12/31 11:11:39;;;;;;;4.72;0.65;;;17.30;99.90;;;;;;5090425;28;20051;-80
2022/12/31 11:14:20;;;;;;;2.60;0.63;;;17.20;99.90;;;;;;5092177;28;20044;-78
2022/12/31 11:17:01;;;;;;;2.78;0.70;;;17.30;99.90;;;;;;5090481;28;20048;-79
2022/12/31 11:19:40;;;;;;;0.70;0.40;;;17.30;99.90;;;;;;5093556;28;20051;-80
2022/12/31 11:22:33;;;;;;;1.95;0.77;;;17.40;99.90;;;;;;5092022;28;20056;-79
2022/12/31 11:25:18;;;;;;;1.17;0.55;;;17.40;99.90;;;;;;5092650;28;20043;-79
2022/12/31 11:28:08;;;;;;;3.33;0.80;;;17.50;99.90;;;;;;5091611;28;20376;-80
2022/12/31 11:30:54;;;;;;;1.42;0.50;;;17.50;99.90;;;;;;5092902;28;20039;-80
2022/12/31 11:33:34;;;;;;;2.15;0.75;;;17.70;99.90;;;;;;5086270;28;20040;-80
2022/12/31 11:36:12;;;;;;;1.27;0.60;;;17.60;99.90;;;;;;5087591;28;20155;-80
2022/12/31 11:39:25;;;;;;;2.25;0.98;;;17.70;99.90;;;;;;5091588;28;20622;-79
2022/12/31 11:41:57;;;;;;;2.83;0.80;;;17.70;99.90;;;;;;5030476;28;20044;-80
2022/12/31 11:44:39;;;;;;;1.40;0.60;;;17.80;99.90;;;;;;5075506;28;20401;-79
2022/12/31 11:47:11;;;;;;;0.77;0.45;;;17.80;99.90;;;;;;5087920;28;20035;-80
2022/12/31 11:50:08;;;;;;;3.72;1.17;;;17.80;99.90;;;;;;5092972;28;20035;-80
2022/12/31 11:52:53;;;;;;;1.65;0.60;;;17.90;99.90;;;;;;5092949;28;20032;-77
2022/12/31 11:55:28;;;;;;;1.42;0.80;;;17.80;99.90;;;;;;5091287;28;20040;-79
2022/12/31 11:58:00;;;;;;;1.73;0.60;;;17.90;99.90;;;;;;5089318;28;20465;-78
2022/12/31 12:00:28;;;;;;;2.13;0.93;;;18.00;99.90;;;;;;5092698;28;20043;-78
2022/12/31 12:03:04;;;;;;;2.97;0.50;;;17.90;99.90;;;;;;5091783;28;20385;-79
2022/12/31 12:05:31;;;;;;;2.85;0.63;;;17.90;99.90;;;;;;5092474;28;20036;-82
2022/12/31 12:07:58;;;;;;;4.82;1.20;;;17.90;99.90;;;;;;5090873;28;20043;-81
2022/12/31 12:10:44;;;;;;;3.05;0.63;;;17.90;99.90;;;;;;5094103;28;20044;-81
2022/12/31 12:13:20;;;;;;;2.03;0.70;;;17.90;99.90;;;;;;5074703;28;20051;-81
2022/12/31 12:15:54;;;;;;;1.73;0.70;;;17.80;99.90;;;;;;5104090;28;20042;-78
2022/12/31 12:18:34;;;;;;;4.55;0.77;;;17.80;99.90;;;;;;5104196;28;20039;-82
2022/12/31 12:21:21;;;;;;;0.90;0.45;;;17.90;99.90;;;;;;5099130;28;20070;-83
2022/12/31 12:23:59;;;;;;;1.33;0.50;;;18.00;99.90;;;;;;5093848;28;20032;-79
2022/12/31 12:26:44;;;;;;;3.10;0.70;;;18.00;99.90;;;;;;5086450;28;20044;-81
2022/12/31 12:29:22;;;;;;;0.95;0.63;;;18.00;99.90;;;;;;5085285;28;20028;-80
2022/12/31 12:32:00;;;;;;;1.60;0.77;;;18.10;99.90;;;;;;5084019;28;20027;-79
2022/12/31 12:34:35;;;;;;;6.90;1.60;;;18.20;99.90;;;;;;5091862;28;20051;-80
2022/12/31 12:37:02;;;;;;;2.05;0.52;;;18.20;99.90;;;;;;5090219;28;20039;-80
2022/12/31 12:39:33;;;;;;;1.63;0.70;;;18.30;99.90;;;;;;5090986;28;20098;-79
2022/12/31 12:42:02;;;;;;;2.42;1.15;;;18.40;99.90;;;;;;5085423;28;20028;-80
2022/12/31 12:44:29;;;;;;;2.08;0.65;;;18.40;99.90;;;;;;5090716;28;20055;-79
2022/12/31 12:46:55;;;;;;;1.75;0.55;;;18.60;99.90;;;;;;5089782;28;20032;-79
2022/12/31 12:49:40;;;;;;;3.30;0.90;;;18.60;99.90;;;;;;5085520;28;20028;-76
2022/12/31 12:52:34;;;;;;;2.70;1.25;;;18.60;99.90;;;;;;5091406;28;20035;-76
2022/12/31 12:55:15;;;;;;;2.20;0.50;;;18.60;99.90;;;;;;5090928;28;20032;-77
2022/12/31 12:57:59;;;;;;;2.50;0.85;;;18.60;99.90;;;;;;5090862;28;20039;-80
2022/12/31 13:00:49;;;;;;;1.83;0.60;;;18.60;99.90;;;;;;5086321;28;20048;-76
2022/12/31 13:03:21;;;;;;;1.92;0.90;;;18.70;99.90;;;;;;5068778;28;20062;-77
2022/12/31 13:06:12;;;;;;;1.67;0.60;;;18.60;99.90;;;;;;5089573;28;20048;-78
2022/12/31 13:09:07;;;;;;;2.55;0.75;;;18.50;99.90;;;;;;5092295;28;20043;-80
2022/12/31 13:11:45;;;;;;;1.20;0.60;;;18.40;99.90;;;;;;5090040;28;20473;-81
2022/12/31 13:14:35;;;;;;;1.73;0.60;;;18.40;99.90;;;;;;5089923;28;20043;-80
2022/12/31 13:17:02;;;;;;;1.45;0.70;;;18.40;99.90;;;;;;5087806;28;20048;-81
2022/12/31 13:19:43;;;;;;;2.50;1.38;;;18.40;99.90;;;;;;5092402;28;20040;-81
2022/12/31 13:22:23;;;;;;;1.88;0.82;;;18.40;99.90;;;;;;5091080;28;20060;-81
2022/12/31 13:24:50;;;;;;;1.95;0.65;;;18.40;99.90;;;;;;5097054;28;20052;-80
2022/12/31 13:27:38;;;;;;;1.45;0.57;;;18.40;99.90;;;;;;5090502;28;20054;-80
2022/12/31 13:30:17;;;;;;;1.27;0.50;;;18.30;99.90;;;;;;5083064;28;20401;-81
2022/12/31 13:33:00;;;;;;;1.95;0.47;;;18.30;99.90;;;;;;5092041;28;20035;-80
2022/12/31 13:35:44;;;;;;;2.10;0.68;;;18.20;99.90;;;;;;5090714;28;20036;-80
2022/12/31 13:38:33;;;;;;;1.75;0.60;;;18.20;99.90;;;;;;5089107;28;20043;-83
2022/12/31 13:41:11;;;;;;;0.85;0.60;;;18.10;99.90;;;;;;5076877;28;20094;-83
2022/12/31 13:43:46;;;;;;;2.72;0.82;;;18.10;99.90;;;;;;5092370;28;20028;-81